Terminal Aerodrome Forecast
Issued by NWS

Home | Current Version | Previous Version | Text Only | Print | Product List | Glossary On
Versions: 1 2 3 4 5 6 7 8 9 10 11 12 13 14 15 16 17 18 19 20 21 22 23 24 25 26 27 28 29 30 31 32 33 34 35 36 37 38 39
000
FTAK31 PANC 300536
TAFATK
TAF
PATK 300536Z 3006/3106 13005KT P6SM VCSH SCT035 BKN080
      TEMPO 3006/3010 -SHRA SCT035 BKN045
     FM301000 VRB03KT P6SM BKN015
     FM302000 VRB03KT P6SM SCT015 BKN080
     FM310200 VRB03KT P6SM SCT100=

USA.gov is the U.S. government's official web portal to all federal, state and local government web resources and services.